createdAt,value
2022-10-03T00:02:34.843Z,13.06
2022-10-03T00:05:30.156Z,13.10
2022-10-03T00:08:42.478Z,13.15
2022-10-03T00:11:36.895Z,13.15
2022-10-03T00:14:27.219Z,13.14
2022-10-03T00:17:18.309Z,13.04
2022-10-03T00:20:23.650Z,13.05
2022-10-03T00:23:22.432Z,13.08
2022-10-03T00:26:22.789Z,13.13
2022-10-03T00:29:39.490Z,13.14
2022-10-03T00:32:18.578Z,13.17
2022-10-03T00:35:14.964Z,13.16
2022-10-03T00:38:22.629Z,13.18
2022-10-03T00:41:16.371Z,13.15
2022-10-03T00:44:22.662Z,13.16
2022-10-03T00:47:14.157Z,13.16
2022-10-03T00:50:01.928Z,13.18
2022-10-03T00:52:44.017Z,13.19
2022-10-03T00:55:43.970Z,13.17
2022-10-03T00:58:51.649Z,13.17
2022-10-03T01:01:44.698Z,13.14
2022-10-03T01:04:42.096Z,13.09
2022-10-03T01:08:02.738Z,13.08
2022-10-03T01:10:52.918Z,13.03
2022-10-03T01:13:26.261Z,12.99
2022-10-03T01:16:25.481Z,12.97
2022-10-03T01:19:21.731Z,12.89
2022-10-03T01:22:50.591Z,12.86
2022-10-03T01:25:51.991Z,12.79
2022-10-03T01:28:49.439Z,12.75
2022-10-03T01:31:25.710Z,12.72
2022-10-03T01:34:12.136Z,12.70
2022-10-03T01:36:58.021Z,12.67
2022-10-03T01:39:37.449Z,12.63
2022-10-03T01:42:20.791Z,12.61
2022-10-03T01:45:56.283Z,12.55
2022-10-03T01:49:08.632Z,12.50
2022-10-03T01:52:17.264Z,12.43
2022-10-03T01:55:26.148Z,12.38
2022-10-03T01:58:14.491Z,12.34
2022-10-03T02:01:04.898Z,12.26
2022-10-03T02:03:51.831Z,12.25
2022-10-03T02:06:56.283Z,12.22
2022-10-03T02:09:46.790Z,12.14
2022-10-03T02:12:23.192Z,12.15
2022-10-03T02:15:29.174Z,12.11
2022-10-03T02:18:36.779Z,12.07
2022-10-03T02:21:23.065Z,12.00
2022-10-03T02:24:08.417Z,11.98
2022-10-03T02:27:07.789Z,11.97
2022-10-03T02:30:15.038Z,11.90
2022-10-03T02:33:15.509Z,11.85
2022-10-03T02:36:10.550Z,11.79
2022-10-03T02:38:53.278Z,11.71
2022-10-03T02:41:42.635Z,11.72
2022-10-03T02:44:50.930Z,11.65
2022-10-03T02:48:27.424Z,11.61
2022-10-03T02:51:43.355Z,11.53
2022-10-03T02:54:59.517Z,11.46
2022-10-03T02:57:54.929Z,11.44
2022-10-03T03:00:46.993Z,11.43
2022-10-03T03:03:39.165Z,11.40
2022-10-03T03:06:31.052Z,11.34
2022-10-03T03:09:57.290Z,11.23
2022-10-03T03:13:29.149Z,11.20
2022-10-03T03:16:26.577Z,11.13
2022-10-03T03:19:35.135Z,11.09
2022-10-03T03:22:43.733Z,11.05
2022-10-03T03:25:48.684Z,11.01
2022-10-03T03:28:45.403Z,10.94
2022-10-03T03:31:13.848Z,10.90
2022-10-03T03:34:20.272Z,10.85
2022-10-03T03:37:02.020Z,10.81
2022-10-03T03:39:42.497Z,10.77
2022-10-03T03:42:46.441Z,10.76
2022-10-03T03:45:44.654Z,10.69
2022-10-03T03:48:35.578Z,10.66
2022-10-03T03:51:34.598Z,10.64
2022-10-03T03:55:02.067Z,10.58
2022-10-03T03:57:49.112Z,10.51
2022-10-03T04:01:01.636Z,10.47
2022-10-03T04:03:45.436Z,10.44
2022-10-03T04:06:44.273Z,10.33
2022-10-03T04:09:44.380Z,10.33
2022-10-03T04:12:50.300Z,10.27
2022-10-03T04:15:43.905Z,10.21
2022-10-03T04:18:17.158Z,10.17
2022-10-03T04:21:16.870Z,10.16
2022-10-03T04:23:55.281Z,10.11
2022-10-03T04:26:46.593Z,10.08
2022-10-03T04:29:58.544Z,9.99
2022-10-03T04:33:04.826Z,9.96
2022-10-03T04:35:41.101Z,9.92
2022-10-03T04:38:38.773Z,9.86
2022-10-03T04:41:32.377Z,9.81
2022-10-03T04:44:38.280Z,9.76
2022-10-03T04:47:47.880Z,9.70
2022-10-03T04:50:43.741Z,9.65
2022-10-03T04:54:00.037Z,9.59
2022-10-03T04:56:49.799Z,9.53
2022-10-03T05:00:00.117Z,9.54
2022-10-03T05:03:04.672Z,9.52
2022-10-03T05:06:10.203Z,9.50
2022-10-03T05:08:54.032Z,9.47
2022-10-03T05:11:56.039Z,9.47
2022-10-03T05:14:50.996Z,9.49
2022-10-03T05:17:38.969Z,9.45
2022-10-03T05:20:30.891Z,9.43
2022-10-03T05:23:51.621Z,9.44
2022-10-03T05:26:46.797Z,9.42
2022-10-03T05:29:24.833Z,9.41
2022-10-03T05:32:36.391Z,9.37
2022-10-03T05:35:40.778Z,9.30
2022-10-03T05:38:15.974Z,9.30
2022-10-03T05:41:09.015Z,9.28
2022-10-03T05:43:51.203Z,9.30
2022-10-03T05:47:08.477Z,9.28
2022-10-03T05:50:10.976Z,9.28
2022-10-03T05:53:24.730Z,9.24
2022-10-03T05:56:09.275Z,9.25
2022-10-03T05:59:03.767Z,9.25
2022-10-03T06:02:04.088Z,9.23
2022-10-03T06:05:08.042Z,9.23
2022-10-03T06:08:21.624Z,9.19
2022-10-03T06:11:34.353Z,9.17
2022-10-03T06:14:31.196Z,9.16
2022-10-03T06:17:43.825Z,9.17
2022-10-03T06:20:32.215Z,9.18
2022-10-03T06:23:47.095Z,9.21
2022-10-03T06:26:46.143Z,9.24
2022-10-03T06:30:03.401Z,9.32
2022-10-03T06:33:04.213Z,9.41
2022-10-03T06:36:15.244Z,9.48
2022-10-03T06:39:25.051Z,9.55
2022-10-03T06:42:28.912Z,9.67
2022-10-03T06:45:33.288Z,9.77
2022-10-03T06:48:24.372Z,9.87
2022-10-03T06:51:01.874Z,9.92
2022-10-03T06:54:19.573Z,10.07
2022-10-03T06:57:22.920Z,10.22
2022-10-03T07:00:19.710Z,10.36
2022-10-03T07:03:46.072Z,10.49
2022-10-03T07:06:52.178Z,10.58
2022-10-03T07:09:40.335Z,10.66
2022-10-03T07:12:50.653Z,10.71
2022-10-03T07:16:08.846Z,10.83
2022-10-03T07:19:03.144Z,10.92
2022-10-03T07:21:50.904Z,11.02
2022-10-03T07:24:55.474Z,11.11
2022-10-03T07:28:02.007Z,11.19
2022-10-03T07:30:59.020Z,11.29
2022-10-03T07:34:15.444Z,11.39
2022-10-03T07:36:54.732Z,11.48
2022-10-03T07:39:47.458Z,11.59
2022-10-03T07:42:55.021Z,11.71
2022-10-03T07:45:28.871Z,11.82
2022-10-03T07:48:29.427Z,11.95
2022-10-03T07:51:13.889Z,12.09
2022-10-03T07:54:27.102Z,12.22
2022-10-03T07:57:00.340Z,12.33
2022-10-03T07:59:36.210Z,12.46
2022-10-03T08:02:29.297Z,12.57
2022-10-03T08:05:29.015Z,12.67
2022-10-03T08:08:48.095Z,12.78
2022-10-03T08:11:33.150Z,12.93
2022-10-03T08:14:48.975Z,13.05
2022-10-03T08:18:07.900Z,13.14
2022-10-03T08:20:52.687Z,13.19
2022-10-03T08:23:52.593Z,13.25
2022-10-03T08:26:42.530Z,13.41
2022-10-03T08:29:42.972Z,13.54
2022-10-03T08:32:55.969Z,13.64
2022-10-03T08:35:35.094Z,13.64
2022-10-03T08:38:40.401Z,13.71
2022-10-03T08:41:47.903Z,13.83
2022-10-03T08:44:45.916Z,13.91
2022-10-03T08:47:40.062Z,13.92
2022-10-03T08:51:13.766Z,13.90
2022-10-03T08:54:15.931Z,13.94
2022-10-03T08:57:07.328Z,14.01
2022-10-03T09:00:10.862Z,14.09
2022-10-03T09:03:28.222Z,14.14
2022-10-03T09:06:20.985Z,14.22
2022-10-03T09:09:31.080Z,14.31
2022-10-03T09:12:32.148Z,14.29
2022-10-03T09:15:23.757Z,14.39
2022-10-03T09:18:02.986Z,14.47
2022-10-03T09:21:25.934Z,14.55
2022-10-03T09:24:18.083Z,14.63
2022-10-03T09:27:33.322Z,14.68
2022-10-03T09:30:20.940Z,14.78
2022-10-03T09:33:44.123Z,14.83
2022-10-03T09:37:00.836Z,14.93
2022-10-03T09:40:01.645Z,14.98
2022-10-03T09:43:12.101Z,15.01
2022-10-03T09:46:21.736Z,15.00
2022-10-03T09:49:09.934Z,15.02
2022-10-03T09:52:16.535Z,15.05
2022-10-03T09:55:03.872Z,15.18
2022-10-03T09:57:52.125Z,15.21
2022-10-03T10:00:53.863Z,15.24
2022-10-03T10:04:28.280Z,15.34
2022-10-03T10:07:28.629Z,15.31
2022-10-03T10:10:32.874Z,15.37
2022-10-03T10:13:49.752Z,15.48
2022-10-03T10:17:20.645Z,15.59
2022-10-03T10:20:23.686Z,15.72
2022-10-03T10:23:25.845Z,15.77
2022-10-03T10:26:09.774Z,15.85
2022-10-03T10:28:55.642Z,15.88
2022-10-03T10:32:02.861Z,15.94
2022-10-03T10:34:45.315Z,16.01
2022-10-03T10:37:49.853Z,16.12
2022-10-03T10:41:23.029Z,16.27
2022-10-03T10:44:42.377Z,16.72
2022-10-03T10:47:49.851Z,17.61
2022-10-03T10:50:26.510Z,19.10
2022-10-03T10:53:30.857Z,21.09
2022-10-03T10:56:33.696Z,22.67
2022-10-03T10:59:57.304Z,24.14
2022-10-03T11:03:23.413Z,25.39
2022-10-03T11:05:53.703Z,26.30
2022-10-03T11:09:11.181Z,27.12
2022-10-03T11:11:50.765Z,27.71
2022-10-03T11:14:30.556Z,28.09
2022-10-03T11:17:49.520Z,28.46
2022-10-03T11:20:38.383Z,28.73
2022-10-03T11:23:36.157Z,28.73
2022-10-03T11:26:27.853Z,28.83
2022-10-03T11:29:13.794Z,29.14
2022-10-03T11:31:56.153Z,29.34
2022-10-03T11:34:57.443Z,29.53
2022-10-03T11:37:37.342Z,29.52
2022-10-03T11:40:30.755Z,29.45
2022-10-03T11:43:35.005Z,29.16
2022-10-03T11:46:14.186Z,29.28
2022-10-03T11:48:56.224Z,29.34
2022-10-03T11:52:13.630Z,29.26
2022-10-03T11:54:47.112Z,29.05
2022-10-03T11:57:35.623Z,28.82
2022-10-03T12:00:20.937Z,28.42
2022-10-03T12:03:11.863Z,27.83
2022-10-03T12:06:13.844Z,27.66
2022-10-03T12:09:02.660Z,27.29
2022-10-03T12:11:42.803Z,26.96
2022-10-03T12:14:11.764Z,26.50
2022-10-03T12:17:18.056Z,26.16
2022-10-03T12:20:20.805Z,25.67
2022-10-03T12:22:55.873Z,25.45
2022-10-03T12:25:35.310Z,25.08
2022-10-03T12:28:24.314Z,24.98
2022-10-03T12:31:10.520Z,24.86
2022-10-03T12:34:05.154Z,24.45
2022-10-03T12:37:09.271Z,24.24
2022-10-03T12:40:23.669Z,24.05
2022-10-03T12:43:30.276Z,23.98
2022-10-03T12:46:28.117Z,23.98
2022-10-03T12:49:26.690Z,24.02
2022-10-03T12:52:09.089Z,24.08
2022-10-03T12:54:57.284Z,23.99
2022-10-03T12:58:02.264Z,23.83
2022-10-03T13:00:50.113Z,23.85
2022-10-03T13:03:42.123Z,23.71
2022-10-03T13:06:38.861Z,23.75
2022-10-03T13:09:51.420Z,23.76
2022-10-03T13:12:40.037Z,23.90
2022-10-03T13:16:21.534Z,24.05
2022-10-03T13:19:03.114Z,24.05
2022-10-03T13:22:03.498Z,23.83
2022-10-03T13:24:48.555Z,23.78
2022-10-03T13:27:35.257Z,23.66
2022-10-03T13:30:29.890Z,23.80
2022-10-03T13:33:23.724Z,23.96
2022-10-03T13:36:33.308Z,24.03
2022-10-03T13:39:15.961Z,24.19
2022-10-03T13:42:03.897Z,24.24
2022-10-03T13:45:13.764Z,24.15
2022-10-03T13:47:50.324Z,24.01
2022-10-03T13:50:33.361Z,24.06
2022-10-03T13:53:12.431Z,24.15
2022-10-03T13:55:55.100Z,24.19
2022-10-03T13:58:42.755Z,24.18
2022-10-03T14:01:52.394Z,24.15
2022-10-03T14:04:47.060Z,24.26
2022-10-03T14:08:05.325Z,24.36
2022-10-03T14:11:06.763Z,24.37
2022-10-03T14:14:05.824Z,24.46
2022-10-03T14:16:42.077Z,24.47
2022-10-03T14:19:52.840Z,24.61
2022-10-03T14:22:52.223Z,24.68
2022-10-03T14:25:43.797Z,24.77
2022-10-03T14:28:37.694Z,24.83
2022-10-03T14:31:16.837Z,24.89
2022-10-03T14:33:53.299Z,24.79
2022-10-03T14:36:48.094Z,24.81
2022-10-03T14:39:45.971Z,24.77
2022-10-03T14:42:44.102Z,24.74
2022-10-03T14:45:22.326Z,24.58
2022-10-03T14:48:12.623Z,24.48
2022-10-03T14:50:42.243Z,24.53
2022-10-03T14:53:23.385Z,24.32
2022-10-03T14:56:12.186Z,24.13
2022-10-03T14:58:49.156Z,23.95
2022-10-03T15:01:21.082Z,23.91
2022-10-03T15:04:24.530Z,23.74
2022-10-03T15:06:54.716Z,23.47
2022-10-03T15:09:34.597Z,22.98
2022-10-03T15:12:07.606Z,22.41
2022-10-03T15:14:43.015Z,21.93
2022-10-03T15:17:28.647Z,21.45
2022-10-03T15:19:59.598Z,21.06
2022-10-03T15:22:37.804Z,20.75
2022-10-03T15:25:41.783Z,20.45
2022-10-03T15:28:21.671Z,20.15
2022-10-03T15:30:53.973Z,19.89
2022-10-03T15:33:38.013Z,19.59
2022-10-03T15:36:14.212Z,19.31
2022-10-03T15:38:49.261Z,19.05
2022-10-03T15:41:36.983Z,18.68
2022-10-03T15:44:27.402Z,18.53
2022-10-03T15:47:04.904Z,18.40
2022-10-03T15:50:07.147Z,18.22
2022-10-03T15:52:48.049Z,18.06
2022-10-03T15:55:36.436Z,17.84
2022-10-03T15:58:17.935Z,17.69
2022-10-03T16:00:59.686Z,17.56
2022-10-03T16:03:40.691Z,17.42
2022-10-03T16:06:22.928Z,17.32
2022-10-03T16:09:30.781Z,17.13
2022-10-03T16:12:49.365Z,16.93
2022-10-03T16:16:10.221Z,16.76
2022-10-03T16:19:25.314Z,16.59
2022-10-03T16:22:21.473Z,16.49
2022-10-03T16:25:16.105Z,16.37
2022-10-03T16:27:56.128Z,16.30
2022-10-03T16:30:42.408Z,16.16
2022-10-03T16:33:09.728Z,16.05
2022-10-03T16:35:40.738Z,15.97
2022-10-03T16:38:22.669Z,15.84
2022-10-03T16:41:00.406Z,15.71
2022-10-03T16:43:32.145Z,15.64
2022-10-03T16:46:38.879Z,15.48
2022-10-03T16:49:24.980Z,15.34
2022-10-03T16:52:04.290Z,15.29
2022-10-03T16:54:32.257Z,15.21
2022-10-03T16:57:05.198Z,15.15
2022-10-03T16:59:36.372Z,15.11
2022-10-03T17:02:15.489Z,15.07
2022-10-03T17:04:49.323Z,15.00
2022-10-03T17:07:25.611Z,14.95
2022-10-03T17:09:57.379Z,14.84
2022-10-03T17:12:58.890Z,14.72
2022-10-03T17:15:35.999Z,14.60
2022-10-03T17:18:29.681Z,14.47
2022-10-03T17:21:15.522Z,14.37
2022-10-03T17:24:13.258Z,14.25
2022-10-03T17:26:50.031Z,14.20
2022-10-03T17:29:33.237Z,14.13
2022-10-03T17:32:01.363Z,14.02
2022-10-03T17:34:50.293Z,13.95
2022-10-03T17:37:41.588Z,13.79
2022-10-03T17:40:23.376Z,13.73
2022-10-03T17:43:04.397Z,13.65
2022-10-03T17:45:43.348Z,13.55
2022-10-03T17:48:24.049Z,13.43
2022-10-03T17:51:23.491Z,13.32
2022-10-03T17:53:57.849Z,13.22
2022-10-03T17:56:30.070Z,13.13
2022-10-03T17:59:43.744Z,13.05
2022-10-03T18:02:24.209Z,12.89
2022-10-03T18:05:07.326Z,12.83
2022-10-03T18:07:36.762Z,12.82
2022-10-03T18:10:16.514Z,12.77
2022-10-03T18:12:44.475Z,12.67
2022-10-03T18:15:54.908Z,12.57
2022-10-03T18:18:54.064Z,12.51
2022-10-03T18:21:54.845Z,12.39
2022-10-03T18:24:36.946Z,12.30
2022-10-03T18:27:30.988Z,12.21
2022-10-03T18:30:06.512Z,12.15
2022-10-03T18:32:41.299Z,12.07
2022-10-03T18:35:34.138Z,12.02
2022-10-03T18:38:20.384Z,11.96
2022-10-03T18:41:00.177Z,11.88
2022-10-03T18:43:39.546Z,11.74
2022-10-03T18:46:16.098Z,11.74
2022-10-03T18:49:28.146Z,11.69
2022-10-03T18:52:24.080Z,11.55
2022-10-03T18:55:27.844Z,11.46
2022-10-03T18:58:23.852Z,11.40
2022-10-03T19:01:16.639Z,11.38
2022-10-03T19:04:02.296Z,11.31
2022-10-03T19:06:49.187Z,11.25
2022-10-03T19:10:08.652Z,11.21
2022-10-03T19:12:43.211Z,11.10
2022-10-03T19:15:38.573Z,11.08
2022-10-03T19:18:39.051Z,11.03
2022-10-03T19:21:18.685Z,10.93
2022-10-03T19:24:07.349Z,10.89
2022-10-03T19:26:37.991Z,10.81
2022-10-03T19:29:13.498Z,10.79
2022-10-03T19:32:03.890Z,10.74
2022-10-03T19:34:43.604Z,10.65
2022-10-03T19:37:25.728Z,10.56
2022-10-03T19:39:53.286Z,10.60
2022-10-03T19:42:44.981Z,10.56
2022-10-03T19:45:15.175Z,10.53
2022-10-03T19:47:58.800Z,10.48
2022-10-03T19:50:36.493Z,10.45
2022-10-03T19:53:18.544Z,10.39
2022-10-03T19:55:50.095Z,10.35
2022-10-03T19:58:24.323Z,10.29
2022-10-03T20:01:02.525Z,10.26
2022-10-03T20:03:40.151Z,10.25
2022-10-03T20:06:35.268Z,10.22
2022-10-03T20:09:18.835Z,10.16
2022-10-03T20:12:01.918Z,10.15
2022-10-03T20:14:40.729Z,10.15
2022-10-03T20:17:23.370Z,10.11
2022-10-03T20:19:54.421Z,10.06
2022-10-03T20:22:30.552Z,10.04
2022-10-03T20:25:00.557Z,10.04
2022-10-03T20:27:52.660Z,10.01
2022-10-03T20:30:38.965Z,10.01
2022-10-03T20:33:07.923Z,9.98
2022-10-03T20:36:05.169Z,9.94
2022-10-03T20:38:53.520Z,9.86
2022-10-03T20:41:40.696Z,9.81
2022-10-03T20:44:44.569Z,9.75
2022-10-03T20:47:43.611Z,9.75
2022-10-03T20:50:24.397Z,9.74
2022-10-03T20:53:04.450Z,9.72
2022-10-03T20:55:43.996Z,9.55
2022-10-03T20:58:47.957Z,9.51
2022-10-03T21:01:27.006Z,9.44
2022-10-03T21:04:25.782Z,9.39
2022-10-03T21:07:06.492Z,9.33
2022-10-03T21:09:44.765Z,9.25
2022-10-03T21:12:32.395Z,9.18
2022-10-03T21:15:12.135Z,9.14
2022-10-03T21:17:44.154Z,9.11
2022-10-03T21:20:21.882Z,9.10
2022-10-03T21:22:53.822Z,9.04
2022-10-03T21:25:24.170Z,9.02
2022-10-03T21:27:57.011Z,8.98
2022-10-03T21:30:49.423Z,8.96
2022-10-03T21:33:27.297Z,8.93
2022-10-03T21:35:55.115Z,8.89
2022-10-03T21:38:32.807Z,8.86
2022-10-03T21:41:11.923Z,8.86
2022-10-03T21:44:04.465Z,8.81
2022-10-03T21:46:52.638Z,8.72
2022-10-03T21:49:58.004Z,8.69
2022-10-03T21:52:58.420Z,8.63
2022-10-03T21:55:51.172Z,8.58
2022-10-03T21:58:46.545Z,8.57
2022-10-03T22:01:52.582Z,8.59
2022-10-03T22:04:47.765Z,8.55
2022-10-03T22:07:26.939Z,8.49
2022-10-03T22:09:57.865Z,8.51
2022-10-03T22:12:31.224Z,8.46
2022-10-03T22:15:16.716Z,8.38
2022-10-03T22:18:02.451Z,8.32
2022-10-03T22:20:34.429Z,8.30
2022-10-03T22:23:19.485Z,8.25
2022-10-03T22:26:29.878Z,8.19
2022-10-03T22:29:16.023Z,8.13
2022-10-03T22:32:09.977Z,8.09
2022-10-03T22:34:58.512Z,8.10
2022-10-03T22:37:27.434Z,8.09
2022-10-03T22:39:59.301Z,8.01
2022-10-03T22:42:33.920Z,7.89
2022-10-03T22:45:05.832Z,7.93
2022-10-03T22:47:35.981Z,7.93
2022-10-03T22:50:10.867Z,7.90
2022-10-03T22:52:43.748Z,7.88
2022-10-03T22:55:16.491Z,7.86
2022-10-03T22:57:45.784Z,7.87
2022-10-03T23:00:21.647Z,7.80
2022-10-03T23:02:58.192Z,7.80
2022-10-03T23:05:55.524Z,7.76
2022-10-03T23:08:48.418Z,7.73
2022-10-03T23:11:29.305Z,7.72
2022-10-03T23:14:17.842Z,7.74
2022-10-03T23:17:06.300Z,7.71
2022-10-03T23:20:10.877Z,7.65
2022-10-03T23:22:46.156Z,7.62
2022-10-03T23:25:33.204Z,7.59
2022-10-03T23:28:03.651Z,7.55
2022-10-03T23:30:45.217Z,7.55
2022-10-03T23:33:40.085Z,7.54
2022-10-03T23:36:21.976Z,7.47
2022-10-03T23:38:49.126Z,7.50
2022-10-03T23:41:59.058Z,7.48
2022-10-03T23:44:54.926Z,7.41
2022-10-03T23:47:40.624Z,7.41
2022-10-03T23:50:09.879Z,7.36
2022-10-03T23:52:50.124Z,7.36
2022-10-03T23:55:35.068Z,7.34
2022-10-03T23:58:16.017Z,7.34
